Motley, Minnesota
Current Conditions -  °F | °C
As of 6:33 PM on Thursday 18 Dec 2014 (Local Time) from KSAZ Reporting Station
Overcast Overcast  
Wind Chill: 11°   Ceiling: 7000
Heat Index: 18°   Visibility: 10mi
Dew Point: 12°   Wind: 5mph
Humidity: 79%   Direction: 140°SE
Pressure: 30.2"   Gusts: NA
Location:  46.34°N, 94.65°W
Report Text: KSAZ 190033Z AUTO 14004KT 10SM OVC070 M08/M11 A3020 RMK AO2
Loading
Personal Weather Stations






























Interactive Weather Map New forecast layout! Learn more

10-Day Weather Forecast

Advertisements
Track Severe Weather on mobile